sensor_id;sensor_type;location;lat;lon;timestamp;pressure;altitude;pressure_sealevel;temperature;humidity
13661;BME280;6903;49.480;11.102;2023-03-23T00:01:01;97300.91;;;10.00;100.00
13661;BME280;6903;49.480;11.102;2023-03-23T00:03:27;97300.91;;;10.00;100.00
13661;BME280;6903;49.480;11.102;2023-03-23T00:05:55;97304.63;;;9.97;100.00
13661;BME280;6903;49.480;11.102;2023-03-23T00:08:25;97307.53;;;9.94;100.00
13661;BME280;6903;49.480;11.102;2023-03-23T00:10:52;97296.56;;;9.89;100.00
13661;BME280;6903;49.480;11.102;2023-03-23T00:13:18;97287.81;;;9.89;100.00
13661;BME280;6903;49.480;11.102;2023-03-23T00:15:46;97293.34;;;9.86;100.00
13661;BME280;6903;49.480;11.102;2023-03-23T00:18:14;97290.56;;;9.87;100.00
13661;BME280;6903;49.480;11.102;2023-03-23T00:20:51;97296.97;;;9.85;100.00
13661;BME280;6903;49.480;11.102;2023-03-23T00:23:18;97300.44;;;9.85;100.00
13661;BME280;6903;49.480;11.102;2023-03-23T00:25:48;97282.00;;;9.85;100.00
13661;BME280;6903;49.480;11.102;2023-03-23T00:28:15;97282.81;;;9.86;100.00
13661;BME280;6903;49.480;11.102;2023-03-23T00:30:42;97286.03;;;9.89;100.00
13661;BME280;6903;49.480;11.102;2023-03-23T00:33:08;97276.06;;;9.93;100.00
13661;BME280;6903;49.480;11.102;2023-03-23T00:35:34;97279.13;;;9.98;100.00
13661;BME280;6903;49.480;11.102;2023-03-23T00:38:01;97261.94;;;10.03;100.00
13661;BME280;6903;49.480;11.102;2023-03-23T00:40:27;97265.59;;;10.12;100.00
13661;BME280;6903;49.480;11.102;2023-03-23T00:42:52;97248.72;;;10.15;100.00
13661;BME280;6903;49.480;11.102;2023-03-23T00:45:18;97250.94;;;10.19;100.00
13661;BME280;6903;49.480;11.102;2023-03-23T00:47:43;97252.72;;;10.19;100.00
13661;BME280;6903;49.480;11.102;2023-03-23T00:50:12;97244.25;;;10.15;100.00
13661;BME280;6903;49.480;11.102;2023-03-23T00:52:39;97233.56;;;10.17;100.00
13661;BME280;6903;49.480;11.102;2023-03-23T00:55:05;97254.66;;;10.17;100.00
13661;BME280;6903;49.480;11.102;2023-03-23T00:57:31;97242.47;;;10.16;100.00
13661;BME280;6903;49.480;11.102;2023-03-23T00:59:56;97245.78;;;10.18;100.00
13661;BME280;6903;49.480;11.102;2023-03-23T01:02:21;97259.41;;;10.23;100.00
13661;BME280;6903;49.480;11.102;2023-03-23T01:04:50;97260.63;;;10.28;100.00
13661;BME280;6903;49.480;11.102;2023-03-23T01:07:18;97254.28;;;10.31;100.00
13661;BME280;6903;49.480;11.102;2023-03-23T01:09:43;97254.81;;;10.34;100.00
13661;BME280;6903;49.480;11.102;2023-03-23T01:12:10;97244.84;;;10.38;100.00
13661;BME280;6903;49.480;11.102;2023-03-23T01:14:36;97247.88;;;10.43;100.00
13661;BME280;6903;49.480;11.102;2023-03-23T01:17:01;97255.50;;;10.46;100.00
13661;BME280;6903;49.480;11.102;2023-03-23T01:19:27;97253.59;;;10.48;100.00
13661;BME280;6903;49.480;11.102;2023-03-23T01:21:52;97247.88;;;10.52;100.00
13661;BME280;6903;49.480;11.102;2023-03-23T01:24:17;97245.81;;;10.56;100.00
13661;BME280;6903;49.480;11.102;2023-03-23T01:26:43;97239.31;;;10.60;100.00
13661;BME280;6903;49.480;11.102;2023-03-23T01:29:08;97238.88;;;10.64;100.00
13661;BME280;6903;49.480;11.102;2023-03-23T01:31:34;97240.81;;;10.72;100.00
13661;BME280;6903;49.480;11.102;2023-03-23T01:34:01;97247.06;;;10.80;100.00
13661;BME280;6903;49.480;11.102;2023-03-23T01:36:28;97234.97;;;10.87;100.00
13661;BME280;6903;49.480;11.102;2023-03-23T01:38:54;97234.97;;;10.97;100.00
13661;BME280;6903;49.480;11.102;2023-03-23T01:41:20;97234.41;;;11.03;100.00
13661;BME280;6903;49.480;11.102;2023-03-23T01:43:57;97237.97;;;11.11;100.00
13661;BME280;6903;49.480;11.102;2023-03-23T01:46:25;97242.69;;;11.17;100.00
13661;BME280;6903;49.480;11.102;2023-03-23T01:48:51;97234.19;;;11.23;100.00
13661;BME280;6903;49.480;11.102;2023-03-23T01:51:18;97237.25;;;11.28;100.00
13661;BME280;6903;49.480;11.102;2023-03-23T01:53:48;97236.66;;;11.34;100.00
13661;BME280;6903;49.480;11.102;2023-03-23T01:56:18;97240.53;;;11.40;100.00
13661;BME280;6903;49.480;11.102;2023-03-23T01:58:45;97235.53;;;11.47;100.00
13661;BME280;6903;49.480;11.102;2023-03-23T02:01:13;97234.25;;;11.51;100.00
13661;BME280;6903;49.480;11.102;2023-03-23T02:03:42;97229.34;;;11.56;100.00
13661;BME280;6903;49.480;11.102;2023-03-23T02:06:08;97228.66;;;11.63;100.00
13661;BME280;6903;49.480;11.102;2023-03-23T02:08:35;97228.25;;;11.68;100.00
13661;BME280;6903;49.480;11.102;2023-03-23T02:11:00;97218.88;;;11.73;100.00
13661;BME280;6903;49.480;11.102;2023-03-23T02:13:27;97217.63;;;11.77;100.00
13661;BME280;6903;49.480;11.102;2023-03-23T02:18:45;97202.41;;;11.89;100.00
13661;BME280;6903;49.480;11.102;2023-03-23T02:21:23;97202.63;;;11.95;100.00
13661;BME280;6903;49.480;11.102;2023-03-23T02:24:30;97204.00;;;11.99;100.00
13661;BME280;6903;49.480;11.102;2023-03-23T02:27:17;97196.63;;;12.03;100.00
13661;BME280;6903;49.480;11.102;2023-03-23T02:32:53;97188.25;;;12.07;100.00
13661;BME280;6903;49.480;11.102;2023-03-23T02:38:15;97187.78;;;12.12;100.00
13661;BME280;6903;49.480;11.102;2023-03-23T02:40:46;97193.06;;;12.12;100.00
13661;BME280;6903;49.480;11.102;2023-03-23T02:43:15;97188.63;;;12.12;100.00
13661;BME280;6903;49.480;11.102;2023-03-23T02:45:43;97183.03;;;12.15;100.00
13661;BME280;6903;49.480;11.102;2023-03-23T02:48:11;97174.66;;;12.20;100.00
13661;BME280;6903;49.480;11.102;2023-03-23T02:50:38;97182.13;;;12.24;100.00
13661;BME280;6903;49.480;11.102;2023-03-23T02:53:08;97183.81;;;12.25;100.00
13661;BME280;6903;49.480;11.102;2023-03-23T02:55:36;97188.09;;;12.26;100.00
13661;BME280;6903;49.480;11.102;2023-03-23T02:58:10;97181.84;;;12.27;100.00
13661;BME280;6903;49.480;11.102;2023-03-23T03:00:37;97181.84;;;12.27;100.00
13661;BME280;6903;49.480;11.102;2023-03-23T03:03:05;97179.84;;;12.29;100.00
13661;BME280;6903;49.480;11.102;2023-03-23T03:06:07;97185.00;;;12.31;100.00
13661;BME280;6903;49.480;11.102;2023-03-23T03:11:11;97175.94;;;12.33;100.00
13661;BME280;6903;49.480;11.102;2023-03-23T03:13:50;97180.09;;;12.36;100.00
13661;BME280;6903;49.480;11.102;2023-03-23T03:18:57;97178.66;;;12.41;100.00
13661;BME280;6903;49.480;11.102;2023-03-23T03:21:28;97176.03;;;12.41;100.00
13661;BME280;6903;49.480;11.102;2023-03-23T03:23:58;97168.63;;;12.45;100.00
13661;BME280;6903;49.480;11.102;2023-03-23T03:26:26;97162.19;;;12.47;100.00
13661;BME280;6903;49.480;11.102;2023-03-23T03:28:53;97164.66;;;12.49;100.00
13661;BME280;6903;49.480;11.102;2023-03-23T03:31:23;97160.91;;;12.51;100.00
13661;BME280;6903;49.480;11.102;2023-03-23T03:33:51;97164.38;;;12.52;100.00
13661;BME280;6903;49.480;11.102;2023-03-23T03:36:19;97158.25;;;12.51;100.00
13661;BME280;6903;49.480;11.102;2023-03-23T03:38:48;97153.78;;;12.52;100.00
13661;BME280;6903;49.480;11.102;2023-03-23T03:41:14;97156.59;;;12.50;100.00
13661;BME280;6903;49.480;11.102;2023-03-23T03:43:39;97162.72;;;12.51;100.00
13661;BME280;6903;49.480;11.102;2023-03-23T03:46:05;97155.91;;;12.48;100.00
13661;BME280;6903;49.480;11.102;2023-03-23T03:48:30;97158.03;;;12.45;100.00
13661;BME280;6903;49.480;11.102;2023-03-23T03:50:55;97161.13;;;12.40;100.00
13661;BME280;6903;49.480;11.102;2023-03-23T03:53:23;97163.09;;;12.38;100.00
13661;BME280;6903;49.480;11.102;2023-03-23T03:55:48;97156.13;;;12.37;100.00
13661;BME280;6903;49.480;11.102;2023-03-23T03:58:15;97156.28;;;12.36;100.00
13661;BME280;6903;49.480;11.102;2023-03-23T04:00:42;97162.72;;;12.33;100.00
13661;BME280;6903;49.480;11.102;2023-03-23T04:03:08;97162.72;;;12.33;100.00
13661;BME280;6903;49.480;11.102;2023-03-23T04:05:34;97165.38;;;12.33;100.00
13661;BME280;6903;49.480;11.102;2023-03-23T04:08:01;97156.28;;;12.36;100.00
13661;BME280;6903;49.480;11.102;2023-03-23T04:10:28;97157.28;;;12.35;100.00
13661;BME280;6903;49.480;11.102;2023-03-23T04:12:54;97160.09;;;12.33;100.00
13661;BME280;6903;49.480;11.102;2023-03-23T04:15:20;97157.44;;;12.33;100.00
13661;BME280;6903;49.480;11.102;2023-03-23T04:17:45;97160.09;;;12.33;100.00
13661;BME280;6903;49.480;11.102;2023-03-23T04:20:11;97154.50;;;12.36;100.00
13661;BME280;6903;49.480;11.102;2023-03-23T04:22:41;97153.03;;;12.42;100.00
13661;BME280;6903;49.480;11.102;2023-03-23T04:25:09;97154.56;;;12.44;100.00
13661;BME280;6903;49.480;11.102;2023-03-23T04:27:36;97155.09;;;12.48;100.00
13661;BME280;6903;49.480;11.102;2023-03-23T04:30:01;97161.88;;;12.50;100.00
13661;BME280;6903;49.480;11.102;2023-03-23T04:32:28;97167.84;;;12.52;100.00
13661;BME280;6903;49.480;11.102;2023-03-23T04:34:55;97161.25;;;12.56;100.00
13661;BME280;6903;49.480;11.102;2023-03-23T04:37:22;97167.53;;;12.55;100.00
13661;BME280;6903;49.480;11.102;2023-03-23T04:39:51;97156.28;;;12.53;100.00
13661;BME280;6903;49.480;11.102;2023-03-23T04:42:29;97159.59;;;12.55;100.00
13661;BME280;6903;49.480;11.102;2023-03-23T04:44:58;97149.03;;;12.55;100.00
13661;BME280;6903;49.480;11.102;2023-03-23T04:47:25;97159.44;;;12.57;100.00
13661;BME280;6903;49.480;11.102;2023-03-23T04:49:56;97155.00;;;12.57;100.00
13661;BME280;6903;49.480;11.102;2023-03-23T04:52:22;97145.09;;;12.59;100.00
13661;BME280;6903;49.480;11.102;2023-03-23T04:54:50;97155.53;;;12.61;100.00
13661;BME280;6903;49.480;11.102;2023-03-23T04:57:15;97163.97;;;12.64;100.00
13661;BME280;6903;49.480;11.102;2023-03-23T04:59:41;97163.97;;;12.64;100.00
13661;BME280;6903;49.480;11.102;2023-03-23T05:02:07;97168.59;;;12.62;100.00
13661;BME280;6903;49.480;11.102;2023-03-23T05:04:32;97160.66;;;12.62;100.00
13661;BME280;6903;49.480;11.102;2023-03-23T05:06:58;97156.19;;;12.63;100.00
13661;BME280;6903;49.480;11.102;2023-03-23T05:09:23;97155.38;;;12.62;100.00
13661;BME280;6903;49.480;11.102;2023-03-23T05:11:49;97152.88;;;12.61;100.00
13661;BME280;6903;49.480;11.102;2023-03-23T05:14:14;97158.97;;;12.61;100.00
13661;BME280;6903;49.480;11.102;2023-03-23T05:16:40;97145.91;;;12.60;100.00
13661;BME280;6903;49.480;11.102;2023-03-23T05:19:05;97150.41;;;12.59;100.00
13661;BME280;6903;49.480;11.102;2023-03-23T05:21:31;97146.06;;;12.58;100.00
13661;BME280;6903;49.480;11.102;2023-03-23T05:23:56;97151.06;;;12.61;100.00
13661;BME280;6903;49.480;11.102;2023-03-23T05:26:22;97149.41;;;12.60;100.00
13661;BME280;6903;49.480;11.102;2023-03-23T05:28:50;97145.44;;;12.64;100.00
13661;BME280;6903;49.480;11.102;2023-03-23T05:31:18;97139.19;;;12.65;100.00
13661;BME280;6903;49.480;11.102;2023-03-23T05:33:43;97145.97;;;12.68;100.00
13661;BME280;6903;49.480;11.102;2023-03-23T05:36:09;97149.47;;;12.68;100.00
13661;BME280;6903;49.480;11.102;2023-03-23T05:38:35;97145.50;;;12.72;100.00
13661;BME280;6903;49.480;11.102;2023-03-23T05:41:01;97148.84;;;12.74;100.00
13661;BME280;6903;49.480;11.102;2023-03-23T05:43:26;97149.06;;;12.81;100.00
13661;BME280;6903;49.480;11.102;2023-03-23T05:45:52;97143.28;;;12.85;100.00
13661;BME280;6903;49.480;11.102;2023-03-23T05:48:18;97145.66;;;12.89;100.00
13661;BME280;6903;49.480;11.102;2023-03-23T05:50:43;97144.19;;;12.94;100.00
13661;BME280;6903;49.480;11.102;2023-03-23T05:53:08;97139.25;;;12.99;100.00
13661;BME280;6903;49.480;11.102;2023-03-23T05:55:35;97129.38;;;13.01;100.00
13661;BME280;6903;49.480;11.102;2023-03-23T05:58:00;97136.31;;;13.02;100.00
13661;BME280;6903;49.480;11.102;2023-03-23T06:00:25;97145.78;;;13.05;100.00
13661;BME280;6903;49.480;11.102;2023-03-23T06:02:54;97143.63;;;13.08;100.00
13661;BME280;6903;49.480;11.102;2023-03-23T06:05:21;97147.09;;;13.09;100.00
13661;BME280;6903;49.480;11.102;2023-03-23T06:07:47;97149.44;;;13.12;100.00
13661;BME280;6903;49.480;11.102;2023-03-23T06:10:12;97157.75;;;13.17;100.00
13661;BME280;6903;49.480;11.102;2023-03-23T06:12:39;97162.25;;;13.24;100.00
13661;BME280;6903;49.480;11.102;2023-03-23T06:15:05;97159.47;;;13.34;100.00
13661;BME280;6903;49.480;11.102;2023-03-23T06:17:32;97154.72;;;13.45;100.00
13661;BME280;6903;49.480;11.102;2023-03-23T06:19:57;97160.06;;;13.53;100.00
13661;BME280;6903;49.480;11.102;2023-03-23T06:22:22;97151.81;;;13.56;100.00
13661;BME280;6903;49.480;11.102;2023-03-23T06:24:48;97157.44;;;13.61;100.00
13661;BME280;6903;49.480;11.102;2023-03-23T06:27:14;97156.31;;;13.64;100.00
13661;BME280;6903;49.480;11.102;2023-03-23T06:29:41;97153.50;;;13.65;100.00
13661;BME280;6903;49.480;11.102;2023-03-23T06:32:07;97150.84;;;13.65;100.00
13661;BME280;6903;49.480;11.102;2023-03-23T06:34:32;97160.44;;;13.66;100.00
13661;BME280;6903;49.480;11.102;2023-03-23T06:36:58;97158.66;;;13.67;100.00
13661;BME280;6903;49.480;11.102;2023-03-23T06:39:23;97165.59;;;13.68;100.00
13661;BME280;6903;49.480;11.102;2023-03-23T06:41:49;97162.44;;;13.72;100.00
13661;BME280;6903;49.480;11.102;2023-03-23T06:44:14;97165.13;;;13.80;100.00
13661;BME280;6903;49.480;11.102;2023-03-23T06:46:41;97172.63;;;13.85;100.00
13661;BME280;6903;49.480;11.102;2023-03-23T06:49:07;97172.97;;;13.90;100.00
13661;BME280;6903;49.480;11.102;2023-03-23T06:51:33;97162.69;;;13.95;100.00
13661;BME280;6903;49.480;11.102;2023-03-23T06:53:58;97183.28;;;14.01;100.00
13661;BME280;6903;49.480;11.102;2023-03-23T06:56:24;97169.34;;;14.07;100.00
13661;BME280;6903;49.480;11.102;2023-03-23T06:58:50;97174.34;;;14.18;100.00
13661;BME280;6903;49.480;11.102;2023-03-23T07:01:16;97176.72;;;14.29;100.00
13661;BME280;6903;49.480;11.102;2023-03-23T07:03:42;97172.28;;;14.46;100.00
13661;BME280;6903;49.480;11.102;2023-03-23T07:06:08;97175.94;;;14.61;100.00
13661;BME280;6903;49.480;11.102;2023-03-23T07:08:33;97173.28;;;14.77;100.00
13661;BME280;6903;49.480;11.102;2023-03-23T07:10:59;97179.72;;;14.90;100.00
13661;BME280;6903;49.480;11.102;2023-03-23T07:13:24;97184.03;;;15.07;100.00
13661;BME280;6903;49.480;11.102;2023-03-23T07:15:50;97181.53;;;15.22;100.00
13661;BME280;6903;49.480;11.102;2023-03-23T07:18:16;97182.16;;;15.40;100.00
13661;BME280;6903;49.480;11.102;2023-03-23T07:20:41;97178.63;;;15.55;100.00
13661;BME280;6903;49.480;11.102;2023-03-23T07:23:07;97179.72;;;15.69;100.00
13661;BME280;6903;49.480;11.102;2023-03-23T07:25:33;97193.47;;;15.81;100.00
13661;BME280;6903;49.480;11.102;2023-03-23T07:28:00;97200.13;;;15.85;100.00
13661;BME280;6903;49.480;11.102;2023-03-23T07:30:26;97194.44;;;15.88;100.00
13661;BME280;6903;49.480;11.102;2023-03-23T07:32:52;97199.78;;;15.88;100.00
13661;BME280;6903;49.480;11.102;2023-03-23T07:35:17;97196.44;;;15.86;100.00
13661;BME280;6903;49.480;11.102;2023-03-23T07:37:42;97200.28;;;15.83;100.00
13661;BME280;6903;49.480;11.102;2023-03-23T07:40:08;97200.78;;;15.79;100.00
13661;BME280;6903;49.480;11.102;2023-03-23T07:42:41;97207.94;;;15.78;100.00
13661;BME280;6903;49.480;11.102;2023-03-23T07:45:07;97206.78;;;15.73;100.00
13661;BME280;6903;49.480;11.102;2023-03-23T07:47:33;97193.69;;;15.71;100.00
13661;BME280;6903;49.480;11.102;2023-03-23T07:49:58;97199.50;;;15.75;100.00
13661;BME280;6903;49.480;11.102;2023-03-23T07:52:23;97202.47;;;15.80;100.00
13661;BME280;6903;49.480;11.102;2023-03-23T07:54:49;97210.72;;;15.93;100.00
13661;BME280;6903;49.480;11.102;2023-03-23T07:57:14;97210.91;;;15.91;100.00
13661;BME280;6903;49.480;11.102;2023-03-23T07:59:39;97215.53;;;15.89;100.00
13661;BME280;6903;49.480;11.102;2023-03-23T08:02:08;97206.94;;;15.79;100.00
13661;BME280;6903;49.480;11.102;2023-03-23T08:04:34;97212.16;;;15.56;100.00
13661;BME280;6903;49.480;11.102;2023-03-23T08:07:02;97209.41;;;15.18;100.00
13661;BME280;6903;49.480;11.102;2023-03-23T08:09:27;97219.53;;;14.90;100.00
13661;BME280;6903;49.480;11.102;2023-03-23T08:11:53;97218.72;;;14.74;100.00
13661;BME280;6903;49.480;11.102;2023-03-23T08:14:18;97219.53;;;14.74;100.00
13661;BME280;6903;49.480;11.102;2023-03-23T08:16:44;97231.34;;;14.80;100.00
13661;BME280;6903;49.480;11.102;2023-03-23T08:19:09;97229.00;;;14.85;100.00
13661;BME280;6903;49.480;11.102;2023-03-23T08:21:34;97227.50;;;14.90;100.00
13661;BME280;6903;49.480;11.102;2023-03-23T08:24:00;97236.47;;;14.89;100.00
13661;BME280;6903;49.480;11.102;2023-03-23T08:26:26;97247.09;;;14.81;100.00
13661;BME280;6903;49.480;11.102;2023-03-23T08:28:52;97242.91;;;14.71;100.00
13661;BME280;6903;49.480;11.102;2023-03-23T08:31:18;97241.75;;;14.49;100.00
13661;BME280;6903;49.480;11.102;2023-03-23T08:33:43;97238.03;;;14.26;100.00
13661;BME280;6903;49.480;11.102;2023-03-23T08:36:09;97245.41;;;14.14;100.00
13661;BME280;6903;49.480;11.102;2023-03-23T08:38:34;97241.09;;;14.05;100.00
13661;BME280;6903;49.480;11.102;2023-03-23T08:41:02;97239.28;;;14.06;100.00
13661;BME280;6903;49.480;11.102;2023-03-23T08:43:30;97245.59;;;14.13;100.00
13661;BME280;6903;49.480;11.102;2023-03-23T08:45:55;97243.97;;;14.20;100.00
13661;BME280;6903;49.480;11.102;2023-03-23T08:48:21;97249.00;;;14.31;100.00
13661;BME280;6903;49.480;11.102;2023-03-23T08:50:48;97240.38;;;14.37;100.00
13661;BME280;6903;49.480;11.102;2023-03-23T08:53:14;97243.88;;;14.46;100.00
13661;BME280;6903;49.480;11.102;2023-03-23T08:55:39;97240.22;;;14.47;100.00
13661;BME280;6903;49.480;11.102;2023-03-23T08:58:05;97244.22;;;14.51;100.00
13661;BME280;6903;49.480;11.102;2023-03-23T09:00:30;97253.03;;;14.59;100.00
13661;BME280;6903;49.480;11.102;2023-03-23T09:02:56;97256.69;;;14.66;100.00
13661;BME280;6903;49.480;11.102;2023-03-23T09:05:24;97263.69;;;14.75;100.00
13661;BME280;6903;49.480;11.102;2023-03-23T09:07:51;97256.53;;;14.84;100.00
13661;BME280;6903;49.480;11.102;2023-03-23T09:10:17;97269.63;;;14.93;100.00
13661;BME280;6903;49.480;11.102;2023-03-23T09:12:44;97263.53;;;15.01;100.00
13661;BME280;6903;49.480;11.102;2023-03-23T09:15:12;97260.38;;;15.13;100.00
13661;BME280;6903;49.480;11.102;2023-03-23T09:17:43;97260.00;;;15.24;100.00
13661;BME280;6903;49.480;11.102;2023-03-23T09:20:11;97267.81;;;15.34;100.00
13661;BME280;6903;49.480;11.102;2023-03-23T09:22:41;97272.81;;;15.45;100.00
13661;BME280;6903;49.480;11.102;2023-03-23T09:25:08;97261.97;;;15.54;100.00
13661;BME280;6903;49.480;11.102;2023-03-23T09:27:35;97261.78;;;15.64;100.00
13661;BME280;6903;49.480;11.102;2023-03-23T09:30:03;97264.59;;;15.79;100.00
13661;BME280;6903;49.480;11.102;2023-03-23T09:32:32;97265.38;;;15.95;100.00
13661;BME280;6903;49.480;11.102;2023-03-23T09:34:58;97269.81;;;16.11;100.00
13661;BME280;6903;49.480;11.102;2023-03-23T09:37:23;97277.38;;;16.30;100.00
13661;BME280;6903;49.480;11.102;2023-03-23T09:39:48;97284.28;;;16.47;100.00
13661;BME280;6903;49.480;11.102;2023-03-23T09:42:35;97282.06;;;16.58;100.00
13661;BME280;6903;49.480;11.102;2023-03-23T09:48:11;97278.47;;;16.74;100.00
13661;BME280;6903;49.480;11.102;2023-03-23T09:50:44;97278.34;;;16.90;100.00
13661;BME280;6903;49.480;11.102;2023-03-23T09:53:19;97272.91;;;17.06;100.00
13661;BME280;6903;49.480;11.102;2023-03-23T09:55:46;97278.47;;;17.19;100.00
13661;BME280;6903;49.480;11.102;2023-03-23T09:58:18;97277.53;;;17.35;100.00
13661;BME280;6903;49.480;11.102;2023-03-23T10:00:57;97287.44;;;17.41;100.00
13661;BME280;6903;49.480;11.102;2023-03-23T10:03:31;97286.75;;;17.47;100.00
13661;BME280;6903;49.480;11.102;2023-03-23T10:05:59;97289.16;;;17.56;100.00
13661;BME280;6903;49.480;11.102;2023-03-23T10:08:27;97289.72;;;17.66;100.00
13661;BME280;6903;49.480;11.102;2023-03-23T10:16:34;97300.25;;;17.97;100.00
13661;BME280;6903;49.480;11.102;2023-03-23T10:19:40;97305.41;;;17.98;100.00
13661;BME280;6903;49.480;11.102;2023-03-23T10:22:12;97301.41;;;17.94;100.00
13661;BME280;6903;49.480;11.102;2023-03-23T10:28:17;97299.66;;;17.72;100.00
13661;BME280;6903;49.480;11.102;2023-03-23T10:30:27;97308.41;;;17.66;100.00
13661;BME280;6903;49.480;11.102;2023-03-23T10:33:14;97302.75;;;17.47;100.00
13661;BME280;6903;49.480;11.102;2023-03-23T10:38:17;97309.56;;;17.04;100.00
13661;BME280;6903;49.480;11.102;2023-03-23T10:40:50;97320.34;;;16.88;100.00
13661;BME280;6903;49.480;11.102;2023-03-23T10:43:18;97319.38;;;16.81;100.00
13661;BME280;6903;49.480;11.102;2023-03-23T10:45:50;97325.72;;;16.80;100.00
13661;BME280;6903;49.480;11.102;2023-03-23T10:48:25;97326.50;;;16.80;100.00
13661;BME280;6903;49.480;11.102;2023-03-23T10:50:56;97331.63;;;16.90;100.00
13661;BME280;6903;49.480;11.102;2023-03-23T10:55:54;97323.44;;;16.91;100.00
13661;BME280;6903;49.480;11.102;2023-03-23T10:58:26;97329.63;;;16.92;100.00
13661;BME280;6903;49.480;11.102;2023-03-23T11:00:55;97329.84;;;16.82;100.00
13661;BME280;6903;49.480;11.102;2023-03-23T11:03:28;97321.78;;;16.68;100.00
13661;BME280;6903;49.480;11.102;2023-03-23T11:06:01;97331.09;;;16.64;100.00
13661;BME280;6903;49.480;11.102;2023-03-23T11:08:30;97329.94;;;16.66;100.00
13661;BME280;6903;49.480;11.102;2023-03-23T11:14:02;97338.59;;;16.68;100.00
13661;BME280;6903;49.480;11.102;2023-03-23T11:16:33;97342.22;;;16.67;100.00
13661;BME280;6903;49.480;11.102;2023-03-23T11:19:00;97344.25;;;16.65;100.00
13661;BME280;6903;49.480;11.102;2023-03-23T11:21:27;97346.63;;;16.60;100.00
13661;BME280;6903;49.480;11.102;2023-03-23T11:23:58;97352.28;;;16.57;100.00
13661;BME280;6903;49.480;11.102;2023-03-23T11:26:27;97348.78;;;16.57;100.00
13661;BME280;6903;49.480;11.102;2023-03-23T11:29:12;97343.63;;;16.55;100.00
13661;BME280;6903;49.480;11.102;2023-03-23T11:32:04;97347.47;;;16.53;100.00
13661;BME280;6903;49.480;11.102;2023-03-23T11:34:40;97355.63;;;16.51;100.00
13661;BME280;6903;49.480;11.102;2023-03-23T11:37:14;97346.34;;;16.47;100.00
13661;BME280;6903;49.480;11.102;2023-03-23T11:40:00;97350.13;;;16.53;100.00
13661;BME280;6903;49.480;11.102;2023-03-23T11:42:38;97359.78;;;16.54;100.00
13661;BME280;6903;49.480;11.102;2023-03-23T11:45:22;97354.94;;;16.57;100.00
13661;BME280;6903;49.480;11.102;2023-03-23T11:50:21;97344.09;;;16.67;100.00
13661;BME280;6903;49.480;11.102;2023-03-23T11:53:17;97344.66;;;16.77;100.00
13661;BME280;6903;49.480;11.102;2023-03-23T11:58:16;97341.69;;;16.80;100.00
13661;BME280;6903;49.480;11.102;2023-03-23T12:00:56;97354.13;;;16.87;100.00
13661;BME280;6903;49.480;11.102;2023-03-23T12:03:22;97350.78;;;16.85;100.00
13661;BME280;6903;49.480;11.102;2023-03-23T12:06:10;97348.66;;;16.81;100.00
13661;BME280;6903;49.480;11.102;2023-03-23T12:11:34;97352.28;;;16.88;100.00
13661;BME280;6903;49.480;11.102;2023-03-23T12:14:11;97346.75;;;16.98;100.00
13661;BME280;6903;49.480;11.102;2023-03-23T12:16:49;97337.69;;;17.07;100.00
13661;BME280;6903;49.480;11.102;2023-03-23T12:19:33;97347.91;;;17.18;100.00
13661;BME280;6903;49.480;11.102;2023-03-23T12:22:08;97324.53;;;17.28;100.00
13661;BME280;6903;49.480;11.102;2023-03-23T12:27:22;97328.41;;;17.62;100.00
13661;BME280;6903;49.480;11.102;2023-03-23T12:33:16;97314.84;;;17.86;100.00
13661;BME280;6903;49.480;11.102;2023-03-23T12:49:25;97327.31;;;18.23;100.00
13661;BME280;6903;49.480;11.102;2023-03-23T12:51:58;97325.44;;;18.23;100.00
13661;BME280;6903;49.480;11.102;2023-03-23T12:57:25;97328.66;;;18.33;100.00
13661;BME280;6903;49.480;11.102;2023-03-23T13:00:02;97334.97;;;18.41;100.00
13661;BME280;6903;49.480;11.102;2023-03-23T13:02:47;97326.19;;;18.47;100.00
13661;BME280;6903;49.480;11.102;2023-03-23T13:08:18;97321.69;;;18.32;100.00
13661;BME280;6903;49.480;11.102;2023-03-23T13:10:45;97322.06;;;18.29;100.00
13661;BME280;6903;49.480;11.102;2023-03-23T13:13:44;97323.50;;;18.32;100.00
13661;BME280;6903;49.480;11.102;2023-03-23T13:16:20;97329.88;;;18.31;100.00
13661;BME280;6903;49.480;11.102;2023-03-23T13:19:01;97320.28;;;18.22;100.00
13661;BME280;6903;49.480;11.102;2023-03-23T13:21:32;97318.28;;;18.24;100.00
13661;BME280;6903;49.480;11.102;2023-03-23T13:24:03;97320.75;;;18.25;100.00
13661;BME280;6903;49.480;11.102;2023-03-23T13:26:29;97319.84;;;18.18;100.00
13661;BME280;6903;49.480;11.102;2023-03-23T13:28:58;97322.16;;;18.21;100.00
13661;BME280;6903;49.480;11.102;2023-03-23T13:31:33;97328.66;;;18.19;100.00
13661;BME280;6903;49.480;11.102;2023-03-23T13:38:56;97312.00;;;18.31;100.00
13661;BME280;6903;49.480;11.102;2023-03-23T13:41:22;97304.06;;;18.38;100.00
13661;BME280;6903;49.480;11.102;2023-03-23T13:43:48;97301.88;;;18.56;100.00
13661;BME280;6903;49.480;11.102;2023-03-23T13:46:29;97303.31;;;18.73;98.69
13661;BME280;6903;49.480;11.102;2023-03-23T13:49:16;97304.94;;;18.89;97.47
13661;BME280;6903;49.480;11.102;2023-03-23T13:55:08;97288.84;;;19.03;94.76
13661;BME280;6903;49.480;11.102;2023-03-23T13:57:48;97285.16;;;19.04;94.22
13661;BME280;6903;49.480;11.102;2023-03-23T14:05:37;97266.81;;;19.22;92.77
13661;BME280;6903;49.480;11.102;2023-03-23T14:10:53;97275.28;;;19.26;92.40
13661;BME280;6903;49.480;11.102;2023-03-23T14:13:29;97280.81;;;19.24;92.75
13661;BME280;6903;49.480;11.102;2023-03-23T14:16:02;97276.22;;;19.33;92.31
13661;BME280;6903;49.480;11.102;2023-03-23T14:18:39;97273.53;;;19.33;92.06
13661;BME280;6903;49.480;11.102;2023-03-23T14:21:11;97271.47;;;19.35;92.53
13661;BME280;6903;49.480;11.102;2023-03-23T14:23:39;97266.19;;;19.41;92.20